Time;durP1;ratioP1;P1;durP2;ratioP2;P2;SDS_P1;SDS_P2;PMS_P1;PMS_P2;Temp;Humidity;BMP_temperature;BMP_pressure;BME280_temperature;BME280_humidity;BME280_pressure;Samples;Min_cycle;Max_cycle;Signal;HPM_P1;HPM_P2
2023/09/03 00:02:11;;;;;;;;;1.00;1.00;;;;;;;;4730330;30;31327;-70
2023/09/03 00:04:36;;;;;;;;;1.00;1.00;;;;;;;;4731415;30;28959;-70
2023/09/03 00:07:01;;;;;;;;;2.00;2.00;;;;;;;;4731182;30;28894;-70
2023/09/03 00:09:26;;;;;;;;;1.00;1.00;;;;;;;;4731434;30;28962;-70
2023/09/03 00:11:52;;;;;;;;;0.67;0.67;;;;;;;;4731134;30;28765;-70
2023/09/03 00:14:17;;;;;;;;;0.00;0.00;;;;;;;;4731523;30;29020;-71
2023/09/03 00:16:42;;;;;;;;;1.00;1.00;;;;;;;;4730593;30;28996;-71
2023/09/03 00:19:07;;;;;;;;;1.00;1.00;;;;;;;;4730997;30;29090;-70
2023/09/03 00:21:32;;;;;;;;;1.00;1.00;;;;;;;;4730632;30;29668;-68
2023/09/03 00:23:58;;;;;;;;;1.00;1.00;;;;;;;;4731017;30;28983;-69
2023/09/03 00:26:26;;;;;;;;;0.00;0.00;;;;;;;;4730718;30;28926;-69
2023/09/03 00:28:51;;;;;;;;;1.33;1.00;;;;;;;;4730707;30;29031;-71
2023/09/03 00:31:17;;;;;;;;;1.33;1.00;;;;;;;;4731201;30;28996;-70
2023/09/03 00:33:43;;;;;;;;;0.00;0.00;;;;;;;;4730267;30;28993;-70
2023/09/03 00:36:13;;;;;;;;;0.00;0.00;;;;;;;;4721599;30;28952;-70
2023/09/03 00:38:38;;;;;;;;;1.00;1.00;;;;;;;;4709932;30;29006;-69
2023/09/03 00:41:04;;;;;;;;;1.33;1.00;;;;;;;;4729641;30;28976;-70
2023/09/03 00:43:29;;;;;;;;;1.67;1.33;;;;;;;;4730630;30;28975;-69
2023/09/03 00:45:56;;;;;;;;;1.67;0.67;;;;;;;;4731111;30;29090;-70
2023/09/03 00:48:23;;;;;;;;;1.00;1.00;;;;;;;;4731078;30;28621;-69
2023/09/03 00:50:49;;;;;;;;;0.00;0.00;;;;;;;;4730782;30;29324;-69
2023/09/03 00:53:16;;;;;;;;;1.00;1.00;;;;;;;;4731040;30;28430;-70
2023/09/03 00:55:42;;;;;;;;;0.67;0.67;;;;;;;;4731239;30;28592;-69
2023/09/03 00:58:08;;;;;;;;;1.33;1.33;;;;;;;;4730997;30;28522;-70
2023/09/03 01:00:33;;;;;;;;;2.00;2.00;;;;;;;;4718823;30;30227;-70
2023/09/03 01:03:00;;;;;;;;;0.67;0.67;;;;;;;;4727824;30;28425;-70
2023/09/03 01:05:25;;;;;;;;;1.00;1.00;;;;;;;;4716182;30;28411;-71
2023/09/03 01:07:51;;;;;;;;;1.00;1.00;;;;;;;;4731220;30;28489;-71
2023/09/03 01:10:16;;;;;;;;;1.00;1.00;;;;;;;;4729802;30;29920;-70
2023/09/03 01:13:12;;;;;;;;;0.00;0.00;;;;;;;;4731225;30;28520;-71
2023/09/03 01:15:39;;;;;;;;;0.67;0.67;;;;;;;;4709606;30;28549;-69
2023/09/03 01:18:04;;;;;;;;;1.00;1.00;;;;;;;;4730013;30;28449;-71
2023/09/03 01:20:35;;;;;;;;;1.00;1.00;;;;;;;;4729879;30;28642;-70
2023/09/03 01:23:16;;;;;;;;;0.00;0.00;;;;;;;;3013043;30;52510476;-70
2023/09/03 01:25:44;;;;;;;;;1.00;1.00;;;;;;;;4719322;30;28651;-71
2023/09/03 01:28:10;;;;;;;;;2.00;2.00;;;;;;;;4730382;30;28775;-71
2023/09/03 01:30:35;;;;;;;;;1.67;0.33;;;;;;;;4730971;30;28576;-71
2023/09/03 01:33:00;;;;;;;;;0.00;0.00;;;;;;;;4729044;30;30171;-71
2023/09/03 01:35:27;;;;;;;;;1.00;1.00;;;;;;;;4730466;30;28604;-70
2023/09/03 01:37:52;;;;;;;;;1.00;1.00;;;;;;;;4730416;30;28443;-71
2023/09/03 01:40:17;;;;;;;;;2.33;1.67;;;;;;;;4730193;30;28832;-71
2023/09/03 01:42:43;;;;;;;;;1.00;1.00;;;;;;;;4729457;30;29261;-70
2023/09/03 01:45:08;;;;;;;;;2.00;2.00;;;;;;;;4730367;30;27832;-71
2023/09/03 01:47:39;;;;;;;;;2.00;2.00;;;;;;;;4729469;30;28458;-70
2023/09/03 01:50:15;;;;;;;;;2.00;2.00;;;;;;;;4730425;30;28576;-70
2023/09/03 01:52:45;;;;;;;;;1.67;1.67;;;;;;;;4729825;30;28690;-71
2023/09/03 01:55:12;;;;;;;;;2.33;2.33;;;;;;;;4730575;30;28465;-71
2023/09/03 01:57:43;;;;;;;;;3.33;2.00;;;;;;;;4730144;30;28562;-70
2023/09/03 02:00:11;;;;;;;;;2.00;2.00;;;;;;;;4730736;30;28441;-71
2023/09/03 02:02:37;;;;;;;;;1.00;1.00;;;;;;;;4729671;30;28732;-71
2023/09/03 02:05:03;;;;;;;;;2.00;2.00;;;;;;;;4730321;30;28552;-70
2023/09/03 02:07:28;;;;;;;;;1.33;1.33;;;;;;;;4730293;30;28418;-70
2023/09/03 02:09:53;;;;;;;;;2.00;2.00;;;;;;;;4730557;30;28480;-70
2023/09/03 02:12:23;;;;;;;;;1.00;1.00;;;;;;;;4729333;30;30844;-71
2023/09/03 02:14:49;;;;;;;;;1.00;1.00;;;;;;;;4729767;30;28645;-70
2023/09/03 02:17:19;;;;;;;;;0.67;0.67;;;;;;;;4729236;30;28464;-70
2023/09/03 02:19:44;;;;;;;;;2.00;2.00;;;;;;;;4730038;30;28580;-70
2023/09/03 02:22:09;;;;;;;;;1.00;0.00;;;;;;;;4729564;30;28511;-70
2023/09/03 02:24:35;;;;;;;;;1.33;1.33;;;;;;;;4729871;30;28899;-70
2023/09/03 02:27:00;;;;;;;;;1.33;1.33;;;;;;;;4729673;30;28663;-70
2023/09/03 02:29:25;;;;;;;;;3.00;1.00;;;;;;;;4729705;30;28557;-71
2023/09/03 02:31:50;;;;;;;;;1.33;1.33;;;;;;;;4729324;30;28558;-70
2023/09/03 02:34:16;;;;;;;;;3.67;2.00;;;;;;;;4729616;30;28399;-71
2023/09/03 02:36:41;;;;;;;;;1.33;1.33;;;;;;;;4728990;30;28372;-71
2023/09/03 02:39:06;;;;;;;;;0.00;0.00;;;;;;;;4729626;30;28730;-71
2023/09/03 02:41:32;;;;;;;;;2.00;2.00;;;;;;;;4728264;30;28401;-71
2023/09/03 02:43:58;;;;;;;;;2.33;2.33;;;;;;;;4729122;30;28453;-71
2023/09/03 02:46:23;;;;;;;;;1.00;1.00;;;;;;;;4728014;30;28430;-71
2023/09/03 02:48:48;;;;;;;;;1.33;1.33;;;;;;;;4729279;30;28421;-71
2023/09/03 02:51:14;;;;;;;;;1.00;1.00;;;;;;;;4728389;30;28557;-71
2023/09/03 02:53:41;;;;;;;;;1.67;1.67;;;;;;;;4740259;30;28503;-71
2023/09/03 02:56:06;;;;;;;;;1.67;1.67;;;;;;;;4727899;30;28443;-72
2023/09/03 02:58:31;;;;;;;;;1.00;1.00;;;;;;;;4728529;30;28552;-71
2023/09/03 03:01:02;;;;;;;;;1.00;1.00;;;;;;;;4729505;30;29550;-72
2023/09/03 03:03:28;;;;;;;;;1.00;1.00;;;;;;;;4714063;30;29628;-71
2023/09/03 03:05:53;;;;;;;;;1.00;1.00;;;;;;;;4730109;30;28468;-72
2023/09/03 03:08:19;;;;;;;;;2.00;0.67;;;;;;;;4729438;30;28807;-71
2023/09/03 03:10:44;;;;;;;;;0.67;0.67;;;;;;;;4729193;30;28433;-71
2023/09/03 03:13:09;;;;;;;;;1.00;1.00;;;;;;;;4729610;30;28550;-71
2023/09/03 03:15:35;;;;;;;;;1.00;1.00;;;;;;;;4729656;30;28480;-71
2023/09/03 03:18:00;;;;;;;;;1.00;0.67;;;;;;;;4727984;30;28441;-71
2023/09/03 03:20:25;;;;;;;;;1.00;1.00;;;;;;;;4729541;30;28527;-72
2023/09/03 03:22:50;;;;;;;;;0.33;0.33;;;;;;;;4727972;30;28737;-71
2023/09/03 03:25:16;;;;;;;;;1.33;1.33;;;;;;;;4729332;30;28465;-72
2023/09/03 03:27:41;;;;;;;;;1.00;1.00;;;;;;;;4729961;30;28807;-72
2023/09/03 03:30:06;;;;;;;;;2.33;1.33;;;;;;;;4732483;30;28520;-72
2023/09/03 03:32:32;;;;;;;;;1.33;1.33;;;;;;;;4716808;30;28436;-71
2023/09/03 03:34:57;;;;;;;;;1.00;1.00;;;;;;;;4732128;30;28699;-71
2023/09/03 03:37:22;;;;;;;;;1.00;1.00;;;;;;;;4732642;30;28507;-72
2023/09/03 03:39:48;;;;;;;;;2.00;2.00;;;;;;;;4732387;30;28527;-72
2023/09/03 03:42:13;;;;;;;;;1.00;1.00;;;;;;;;4732567;30;28461;-72
2023/09/03 03:44:38;;;;;;;;;2.67;1.00;;;;;;;;4732402;30;28654;-71
2023/09/03 03:47:04;;;;;;;;;1.00;1.00;;;;;;;;4732129;30;28469;-72
2023/09/03 03:49:29;;;;;;;;;1.00;1.00;;;;;;;;4732374;30;28949;-72
2023/09/03 03:51:54;;;;;;;;;0.67;0.67;;;;;;;;4724576;30;28465;-72
2023/09/03 03:54:19;;;;;;;;;0.00;0.00;;;;;;;;4722786;30;28541;-72
2023/09/03 03:56:44;;;;;;;;;0.67;0.67;;;;;;;;4731882;30;28561;-72
2023/09/03 03:59:10;;;;;;;;;2.67;0.33;;;;;;;;4731603;30;29286;-73
2023/09/03 04:01:35;;;;;;;;;1.00;1.00;;;;;;;;4731426;30;28644;-71
2023/09/03 04:04:01;;;;;;;;;1.00;1.00;;;;;;;;4731816;30;28486;-72
2023/09/03 04:06:27;;;;;;;;;0.67;0.67;;;;;;;;4732596;30;28399;-70
2023/09/03 04:14:45;;;;;;;;;;;;;;;;;;2286027;30;233346354;-72
2023/09/03 04:21:51;;;;;;;;;0.50;0.50;;;;;;;;2;218938439;218938439;-72
2023/09/03 04:28:10;;;;;;;;;1.50;1.50;;;;;;;;2;186252456;186252456;-72
2023/09/03 04:35:12;;;;;;;;;0.50;0.50;;;;;;;;2;216472983;216472983;-72
2023/09/03 04:41:23;;;;;;;;;1.50;1.50;;;;;;;;2;179188474;179188474;-70
2023/09/03 04:48:22;;;;;;;;;0.50;0.50;;;;;;;;2;211344074;211344074;-72
2023/09/03 04:54:40;;;;;;;;;2.00;2.00;;;;;;;;2;182362147;182362147;-72
2023/09/03 05:01:43;;;;;;;;;1.50;1.50;;;;;;;;2;218168379;218168379;-72
2023/09/03 05:07:54;;;;;;;;;0.50;0.50;;;;;;;;2;182800373;182800373;-72
2023/09/03 05:14:57;;;;;;;;;0.50;0.50;;;;;;;;2;215928789;215928789;-72
2023/09/03 05:21:11;;;;;;;;;1.00;1.00;;;;;;;;2;183508266;183508266;-72
2023/09/03 05:28:10;;;;;;;;;2.50;2.50;;;;;;;;2;216346005;216346005;-72
2023/09/03 05:34:25;;;;;;;;;1.00;1.00;;;;;;;;2;181956825;181956825;-72
2023/09/03 05:41:22;;;;;;;;;3.00;3.00;;;;;;;;2;217180384;217180384;-72
2023/09/03 05:47:38;;;;;;;;;1.00;1.00;;;;;;;;2;182755561;182755561;-72
2023/09/03 05:54:47;;;;;;;;;2.00;2.00;;;;;;;;2;221473649;221473649;-72
2023/09/03 06:01:09;;;;;;;;;1.50;1.50;;;;;;;;2;189293343;189293343;-72
2023/09/03 06:08:30;;;;;;;;;0.50;0.50;;;;;;;;2;225421914;225421914;-71
2023/09/03 06:14:52;;;;;;;;;1.00;1.00;;;;;;;;2;186419994;186419994;-71
2023/09/03 06:22:05;;;;;;;;;1.00;1.00;;;;;;;;2;221332801;221332801;-71
2023/09/03 06:28:22;;;;;;;;;10.50;2.50;;;;;;;;2;183277167;183277167;-71
2023/09/03 06:35:31;;;;;;;;;2.50;2.50;;;;;;;;2;222808155;222808155;-71
2023/09/03 06:41:59;;;;;;;;;1.00;1.00;;;;;;;;2;191533213;191533213;-71
2023/09/03 06:49:13;;;;;;;;;2.00;2.00;;;;;;;;2;225592204;225592204;-71
2023/09/03 06:55:31;;;;;;;;;6.50;6.50;;;;;;;;2;185185561;185185561;-71
2023/09/03 07:02:52;;;;;;;;;11.00;2.00;;;;;;;;2;226907621;226907621;-71
2023/09/03 07:09:16;;;;;;;;;1.50;1.50;;;;;;;;2;188582759;188582759;-71
2023/09/03 07:16:34;;;;;;;;;4.50;4.50;;;;;;;;2;226767549;226767549;-71
2023/09/03 07:23:03;;;;;;;;;6.50;6.50;;;;;;;;2;190201400;190201400;-71
2023/09/03 07:30:12;;;;;;;;;5.00;5.00;;;;;;;;2;222295237;222295237;-70
2023/09/03 07:36:34;;;;;;;;;2.50;2.50;;;;;;;;2;187286538;187286538;-70
2023/09/03 07:43:51;;;;;;;;;1.00;1.00;;;;;;;;2;223611255;223611255;-71
2023/09/03 07:50:20;;;;;;;;;2.00;2.00;;;;;;;;2;191797867;191797867;-71
2023/09/03 07:57:35;;;;;;;;;2.00;2.00;;;;;;;;2;226130002;226130002;-71
2023/09/03 08:04:00;;;;;;;;;6.50;4.00;;;;;;;;2;187689608;187689608;-71
2023/09/03 08:11:14;;;;;;;;;4.00;4.00;;;;;;;;2;225282222;225282222;-71
2023/09/03 08:17:31;;;;;;;;;4.00;4.00;;;;;;;;2;186160515;186160515;-71
2023/09/03 08:24:37;;;;;;;;;1.00;1.00;;;;;;;;2;220538114;220538114;-71
2023/09/03 08:30:55;;;;;;;;;0.50;0.50;;;;;;;;2;182786785;182786785;-71
2023/09/03 08:38:07;;;;;;;;;1.50;1.50;;;;;;;;2;219979544;219979544;-71
2023/09/03 08:44:36;;;;;;;;;12.00;0.50;;;;;;;;2;188229830;188229830;-71
2023/09/03 08:51:48;;;;;;;;;3.50;3.50;;;;;;;;2;220156606;220156606;-71
2023/09/03 08:58:13;;;;;;;;;0.50;0.50;;;;;;;;2;187238512;187238512;-71
2023/09/03 09:05:25;;;;;;;;;3.00;3.00;;;;;;;;2;225916008;225916008;-71
2023/09/03 09:11:46;;;;;;;;;0.00;0.00;;;;;;;;2;184661761;184661761;-71
2023/09/03 09:18:58;;;;;;;;;1.50;1.50;;;;;;;;2;221258674;221258674;-72
2023/09/03 09:25:37;;;;;;;;;0.00;0.00;;;;;;;;2;185230454;185230454;-72
2023/09/03 09:32:40;;;;;;;;;0.00;0.00;;;;;;;;2;215878762;215878762;-72
2023/09/03 09:39:15;;;;;;;;;0.50;0.50;;;;;;;;2;188720511;188720511;-70
2023/09/03 09:46:50;;;;;;;;;9.50;0.50;;;;;;;;2;237412880;237412880;-70
2023/09/03 09:53:24;;;;;;;;;0.50;0.50;;;;;;;;2;189053431;189053431;-71
2023/09/03 10:00:52;;;;;;;;;1.50;1.50;;;;;;;;2;230600791;230600791;-72
2023/09/03 10:06:32;;;;;;;;;0.00;0.00;;;;;;;;2;186984920;186984920;-71
2023/09/03 10:13:07;;;;;;;;;0.50;0.50;;;;;;;;324960;30;184268885;-71
2023/09/03 10:21:32;;;;;;;;;1.00;1.00;;;;;;;;3;120547750;207303821;-71
2023/09/03 10:23:59;;;;;;;;;3.50;3.50;;;;;;;;183837;30;139291179;-71
2023/09/03 10:30:58;;;;;;;;;;;;;;;;;;98560;30;234074573;-71
2023/09/03 10:37:39;;;;;;;;;1.50;1.50;;;;;;;;2;204480917;204480917;-70
2023/09/03 10:43:31;;;;;;;;;3.00;3.00;;;;;;;;2;170630757;170630757;-70
2023/09/03 10:50:34;;;;;;;;;1.00;1.00;;;;;;;;2;207779801;207779801;-72
2023/09/03 10:52:59;;;;;;;;;2.75;2.75;;;;;;;;401600;30;132623716;-70
2023/09/03 10:55:26;;;;;;;;;2.00;2.00;;;;;;;;4730443;30;28511;-70
2023/09/03 10:58:16;;;;;;;;;2.00;2.00;;;;;;;;4730477;30;28434;-71
2023/09/03 11:01:02;;;;;;;;;2.00;2.00;;;;;;;;4730422;30;30367;-71
2023/09/03 11:03:28;;;;;;;;;3.00;3.00;;;;;;;;4730001;30;28417;-71
2023/09/03 11:06:12;;;;;;;;;3.00;2.25;;;;;;;;4730547;30;29110;-71
2023/09/03 11:08:39;;;;;;;;;2.00;2.00;;;;;;;;4730270;30;28456;-71
2023/09/03 11:11:04;;;;;;;;;2.00;2.00;;;;;;;;4730157;30;29418;-71
2023/09/03 11:13:29;;;;;;;;;2.75;2.75;;;;;;;;4728737;30;28521;-71
2023/09/03 11:15:57;;;;;;;;;3.00;3.00;;;;;;;;4730281;30;28583;-71
2023/09/03 11:18:25;;;;;;;;;2.25;1.75;;;;;;;;4730397;30;28683;-72
2023/09/03 11:20:51;;;;;;;;;2.00;2.00;;;;;;;;4729762;30;29372;-72
2023/09/03 11:23:16;;;;;;;;;2.25;2.25;;;;;;;;4725215;30;28342;-71
2023/09/03 11:25:42;;;;;;;;;2.00;2.00;;;;;;;;4727505;30;28527;-71
2023/09/03 11:28:08;;;;;;;;;3.75;3.75;;;;;;;;4728984;30;28422;-72
2023/09/03 11:30:34;;;;;;;;;2.50;2.50;;;;;;;;4729764;30;29434;-71
2023/09/03 11:32:59;;;;;;;;;3.25;3.25;;;;;;;;4728946;30;28477;-71
2023/09/03 11:35:25;;;;;;;;;2.75;2.00;;;;;;;;4729657;30;28465;-72
2023/09/03 11:37:51;;;;;;;;;3.25;3.00;;;;;;;;4729881;30;28462;-72
2023/09/03 11:40:16;;;;;;;;;4.00;3.00;;;;;;;;4710463;30;474965;-72
2023/09/03 11:45:44;;;;;;;;;;;;;;;;;;546764;30;129439282;-72
2023/09/03 11:50:08;;;;;;;;;1.50;1.50;;;;;;;;3;73170969;84464655;-73
2023/09/03 11:55:06;;;;;;;;;1.50;1.50;;;;;;;;3;95155264;103037808;-72
2023/09/03 12:00:08;;;;;;;;;3.50;3.50;;;;;;;;3;94882873;103171721;-72
2023/09/03 12:06:13;;;;;;;;;1.00;1.00;;;;;;;;3;106246424;134745938;-72
2023/09/03 12:11:29;;;;;;;;;0.50;0.50;;;;;;;;3;97320981;102191026;-71
2023/09/03 12:16:10;;;;;;;;;1.00;1.00;;;;;;;;3;85444194;95325156;-72
2023/09/03 12:20:51;;;;;;;;;1.50;1.50;;;;;;;;3;94049714;96905336;-72
2023/09/03 12:25:20;;;;;;;;;2.00;2.00;;;;;;;;3;90254917;105719998;-71
2023/09/03 12:30:57;;;;;;;;;3.00;3.00;;;;;;;;4;59687427;93023793;-72
2023/09/03 12:33:47;;;;;;;;;3.00;3.00;;;;;;;;223987;30;33332746;-71
2023/09/03 12:36:13;;;;;;;;;2.00;2.00;;;;;;;;4714170;30;39378;-71
2023/09/03 12:38:58;;;;;;;;;3.25;2.00;;;;;;;;4714723;30;28549;-72
2023/09/03 12:41:28;;;;;;;;;2.00;2.00;;;;;;;;4720242;30;28528;-71
2023/09/03 12:43:54;;;;;;;;;2.00;2.00;;;;;;;;4732363;30;29210;-72
2023/09/03 12:46:20;;;;;;;;;3.00;2.00;;;;;;;;4731994;30;28515;-71
2023/09/03 12:48:45;;;;;;;;;2.00;2.00;;;;;;;;4732361;30;28430;-72
2023/09/03 12:51:15;;;;;;;;;4.00;4.00;;;;;;;;4732309;30;28402;-74
2023/09/03 12:53:40;;;;;;;;;3.00;3.00;;;;;;;;4732226;30;29229;-72
2023/09/03 12:56:06;;;;;;;;;1.50;1.50;;;;;;;;4729648;30;28558;-72
2023/09/03 12:58:31;;;;;;;;;3.00;3.00;;;;;;;;4729878;30;28464;-71
2023/09/03 13:00:57;;;;;;;;;2.75;2.50;;;;;;;;4729271;30;28526;-71
2023/09/03 13:03:22;;;;;;;;;2.25;2.25;;;;;;;;4729564;30;30031;-72
2023/09/03 13:05:47;;;;;;;;;1.75;1.75;;;;;;;;4731128;30;28533;-71
2023/09/03 13:08:12;;;;;;;;;3.00;3.00;;;;;;;;4730985;30;28540;-72
2023/09/03 13:10:37;;;;;;;;;3.00;3.00;;;;;;;;4730317;30;28522;-73
2023/09/03 13:13:03;;;;;;;;;3.00;3.00;;;;;;;;4731109;30;28443;-72
2023/09/03 13:15:28;;;;;;;;;2.25;2.25;;;;;;;;4730721;30;28466;-72
2023/09/03 13:17:54;;;;;;;;;3.00;2.00;;;;;;;;4730615;30;28656;-73
2023/09/03 13:20:20;;;;;;;;;2.50;2.50;;;;;;;;4730257;30;28735;-76
2023/09/03 13:22:45;;;;;;;;;2.50;1.50;;;;;;;;4730105;30;28735;-73
2023/09/03 13:25:11;;;;;;;;;2.00;2.00;;;;;;;;4729774;30;28576;-73
2023/09/03 13:27:36;;;;;;;;;2.75;2.50;;;;;;;;4730086;30;28572;-74
2023/09/03 13:30:01;;;;;;;;;2.00;2.00;;;;;;;;4730347;30;28453;-72
2023/09/03 13:32:26;;;;;;;;;1.25;1.25;;;;;;;;4730074;30;28856;-73
2023/09/03 13:34:52;;;;;;;;;1.25;1.25;;;;;;;;4729009;30;28545;-73
2023/09/03 13:37:17;;;;;;;;;3.25;2.00;;;;;;;;4730174;30;28528;-72
2023/09/03 13:39:42;;;;;;;;;2.00;2.00;;;;;;;;4730220;30;28772;-73
2023/09/03 13:42:07;;;;;;;;;4.00;2.75;;;;;;;;4729264;30;28557;-72
2023/09/03 13:44:33;;;;;;;;;2.50;2.50;;;;;;;;4730512;30;28507;-72
2023/09/03 13:46:58;;;;;;;;;3.00;2.00;;;;;;;;4714561;30;28558;-72
2023/09/03 13:49:23;;;;;;;;;2.00;2.00;;;;;;;;4730221;30;28487;-72
2023/09/03 13:51:48;;;;;;;;;2.75;2.00;;;;;;;;4730330;30;29473;-72
2023/09/03 13:54:14;;;;;;;;;1.25;1.25;;;;;;;;4730220;30;28526;-73
2023/09/03 13:56:39;;;;;;;;;1.25;1.25;;;;;;;;4729280;30;28550;-72
2023/09/03 13:59:04;;;;;;;;;2.00;2.00;;;;;;;;4730660;30;28513;-72
2023/09/03 14:01:29;;;;;;;;;2.00;2.00;;;;;;;;4727981;30;29777;-71
2023/09/03 14:03:55;;;;;;;;;1.25;1.25;;;;;;;;4730423;30;28690;-71
2023/09/03 14:06:20;;;;;;;;;2.50;2.50;;;;;;;;4730414;30;28438;-71
2023/09/03 14:08:45;;;;;;;;;1.00;1.00;;;;;;;;4730520;30;28390;-71
2023/09/03 14:11:10;;;;;;;;;1.50;1.50;;;;;;;;4729221;30;28409;-71
2023/09/03 14:13:36;;;;;;;;;0.50;0.50;;;;;;;;4730112;30;28572;-71
2023/09/03 14:16:01;;;;;;;;;2.00;2.00;;;;;;;;4728843;30;28440;-75
2023/09/03 14:18:27;;;;;;;;;2.00;1.00;;;;;;;;4730421;30;28406;-74
2023/09/03 14:20:53;;;;;;;;;1.00;1.00;;;;;;;;4728870;30;29765;-74
2023/09/03 14:23:18;;;;;;;;;4.00;2.25;;;;;;;;4729868;30;28486;-74
2023/09/03 14:25:43;;;;;;;;;2.00;2.00;;;;;;;;4730063;30;28505;-76
2023/09/03 14:28:09;;;;;;;;;2.50;2.50;;;;;;;;4728472;30;28448;-76
2023/09/03 14:30:36;;;;;;;;;1.00;1.00;;;;;;;;4730185;30;28515;-74
2023/09/03 14:33:02;;;;;;;;;1.25;1.25;;;;;;;;4730107;30;28458;-73
2023/09/03 14:35:27;;;;;;;;;0.25;0.25;;;;;;;;4728789;30;28556;-73
2023/09/03 14:37:52;;;;;;;;;2.50;2.50;;;;;;;;4728841;30;28593;-73
2023/09/03 14:40:18;;;;;;;;;1.25;1.25;;;;;;;;4730011;30;29198;-73
2023/09/03 14:42:44;;;;;;;;;1.50;1.50;;;;;;;;4729372;30;28516;-72
2023/09/03 14:45:10;;;;;;;;;1.25;1.25;;;;;;;;4729743;30;28663;-71
2023/09/03 14:47:35;;;;;;;;;3.00;3.00;;;;;;;;4729716;30;28435;-73
2023/09/03 14:50:00;;;;;;;;;1.25;1.25;;;;;;;;4729948;30;28979;-71
2023/09/03 14:52:25;;;;;;;;;1.25;1.25;;;;;;;;4729756;30;28419;-71
2023/09/03 14:54:50;;;;;;;;;2.75;2.75;;;;;;;;4729504;30;28419;-71
2023/09/03 14:57:16;;;;;;;;;2.25;2.25;;;;;;;;4728572;30;28796;-72
2023/09/03 14:59:41;;;;;;;;;0.75;0.75;;;;;;;;4729294;30;28900;-72
2023/09/03 15:02:06;;;;;;;;;3.00;3.00;;;;;;;;4729641;30;28722;-70
2023/09/03 15:04:31;;;;;;;;;1.00;1.00;;;;;;;;4728377;30;28499;-72
2023/09/03 15:06:57;;;;;;;;;2.25;2.25;;;;;;;;4729152;30;28516;-70
2023/09/03 15:09:22;;;;;;;;;1.00;1.00;;;;;;;;4729333;30;28492;-71
2023/09/03 15:11:48;;;;;;;;;1.00;1.00;;;;;;;;4729390;30;28813;-72
2023/09/03 15:14:14;;;;;;;;;2.00;2.00;;;;;;;;4729570;30;28628;-70
2023/09/03 15:16:39;;;;;;;;;0.25;0.25;;;;;;;;4729777;30;28588;-72
2023/09/03 15:19:04;;;;;;;;;3.00;2.00;;;;;;;;4728798;30;28951;-71
2023/09/03 15:21:30;;;;;;;;;1.00;1.00;;;;;;;;4729224;30;28772;-71
2023/09/03 15:23:56;;;;;;;;;2.00;2.00;;;;;;;;4731351;30;28529;-72
2023/09/03 15:26:21;;;;;;;;;1.00;1.00;;;;;;;;4732151;30;28498;-71
2023/09/03 15:28:46;;;;;;;;;1.50;1.50;;;;;;;;4732550;30;30057;-70
2023/09/03 15:31:11;;;;;;;;;2.00;2.00;;;;;;;;4732526;30;28524;-69
2023/09/03 15:33:37;;;;;;;;;2.00;2.00;;;;;;;;4731860;30;28623;-70
2023/09/03 15:36:06;;;;;;;;;1.75;1.75;;;;;;;;4732507;30;28557;-70
2023/09/03 15:38:31;;;;;;;;;1.25;1.25;;;;;;;;4731032;30;29348;-69
2023/09/03 15:40:57;;;;;;;;;1.50;1.50;;;;;;;;4730977;30;28463;-69
2023/09/03 15:43:22;;;;;;;;;1.00;1.00;;;;;;;;4732394;30;28448;-70
2023/09/03 15:45:49;;;;;;;;;1.25;1.25;;;;;;;;4732430;30;28429;-70
2023/09/03 15:48:14;;;;;;;;;2.00;2.00;;;;;;;;4730824;30;30207;-70
2023/09/03 15:50:40;;;;;;;;;1.00;1.00;;;;;;;;4731689;30;28470;-71
2023/09/03 15:53:05;;;;;;;;;2.00;1.00;;;;;;;;4732342;30;28968;-70
2023/09/03 15:55:31;;;;;;;;;2.00;2.00;;;;;;;;4732076;30;28488;-70
2023/09/03 15:57:56;;;;;;;;;1.00;1.00;;;;;;;;4731929;30;29221;-71
2023/09/03 16:00:21;;;;;;;;;1.00;1.00;;;;;;;;4730219;30;28594;-70
2023/09/03 16:02:46;;;;;;;;;1.00;1.00;;;;;;;;4732161;30;28547;-73
2023/09/03 16:05:12;;;;;;;;;1.75;1.75;;;;;;;;4732108;30;28520;-72
2023/09/03 16:07:37;;;;;;;;;1.50;1.00;;;;;;;;4727470;30;28950;-72
2023/09/03 16:10:03;;;;;;;;;1.25;1.25;;;;;;;;4728443;30;28526;-71
2023/09/03 16:12:28;;;;;;;;;1.75;1.75;;;;;;;;4731662;30;28339;-73
2023/09/03 16:14:53;;;;;;;;;1.00;1.00;;;;;;;;4730432;30;28632;-72
2023/09/03 16:17:19;;;;;;;;;1.25;1.25;;;;;;;;4731465;30;29303;-72
2023/09/03 16:19:44;;;;;;;;;1.00;1.00;;;;;;;;4731850;30;28542;-72
2023/09/03 16:22:09;;;;;;;;;0.50;0.50;;;;;;;;4730801;30;28391;-72
2023/09/03 16:24:35;;;;;;;;;2.00;1.00;;;;;;;;4731193;30;28627;-73
2023/09/03 16:27:00;;;;;;;;;1.25;1.25;;;;;;;;4731838;30;29229;-72
2023/09/03 16:29:25;;;;;;;;;0.75;0.75;;;;;;;;4731752;30;28445;-72
2023/09/03 16:31:51;;;;;;;;;2.00;2.00;;;;;;;;4729416;30;28441;-72
2023/09/03 16:34:16;;;;;;;;;1.25;1.25;;;;;;;;4731158;30;28612;-73
2023/09/03 16:36:43;;;;;;;;;2.25;2.25;;;;;;;;4730340;30;30256;-73
2023/09/03 16:39:10;;;;;;;;;0.00;0.00;;;;;;;;4731803;30;28408;-72
2023/09/03 16:41:35;;;;;;;;;1.00;1.00;;;;;;;;4730975;30;28942;-72
2023/09/03 16:44:00;;;;;;;;;1.00;1.00;;;;;;;;4731982;30;28587;-72
2023/09/03 16:46:26;;;;;;;;;2.00;2.00;;;;;;;;4731842;30;28528;-72
2023/09/03 16:48:51;;;;;;;;;2.00;2.00;;;;;;;;4732066;30;28612;-74
2023/09/03 16:51:16;;;;;;;;;1.00;1.00;;;;;;;;4731661;30;28472;-72
2023/09/03 16:53:41;;;;;;;;;2.00;2.00;;;;;;;;4732049;30;28541;-75
2023/09/03 16:56:06;;;;;;;;;1.00;1.00;;;;;;;;4729487;30;28537;-73
2023/09/03 16:58:32;;;;;;;;;2.00;2.00;;;;;;;;4731532;30;28497;-76
2023/09/03 17:00:57;;;;;;;;;5.25;5.00;;;;;;;;4733993;30;28525;-76
2023/09/03 17:03:24;;;;;;;;;6.25;5.75;;;;;;;;4734261;30;28577;-76
2023/09/03 17:05:50;;;;;;;;;1.75;1.75;;;;;;;;4732829;30;28507;-74
2023/09/03 17:08:15;;;;;;;;;2.00;2.00;;;;;;;;4719150;30;28597;-76
2023/09/03 17:10:40;;;;;;;;;2.00;2.00;;;;;;;;4712988;30;28417;-78
2023/09/03 17:13:05;;;;;;;;;2.50;2.50;;;;;;;;4728816;30;28445;-74
2023/09/03 17:15:36;;;;;;;;;1.75;1.75;;;;;;;;4729747;30;28516;-76
2023/09/03 17:18:01;;;;;;;;;1.00;1.00;;;;;;;;4730312;30;28548;-74
2023/09/03 17:20:26;;;;;;;;;1.50;1.50;;;;;;;;4729502;30;28473;-77
2023/09/03 17:22:51;;;;;;;;;3.00;1.75;;;;;;;;4730307;30;28537;-74
2023/09/03 17:25:16;;;;;;;;;2.00;2.00;;;;;;;;4730121;30;28663;-73
2023/09/03 17:27:42;;;;;;;;;1.25;1.25;;;;;;;;4725563;30;28816;-76
2023/09/03 17:30:07;;;;;;;;;2.00;2.00;;;;;;;;4730145;30;28541;-74
2023/09/03 17:32:32;;;;;;;;;2.67;2.00;;;;;;;;4729996;30;28598;-75
2023/09/03 17:34:57;;;;;;;;;2.00;2.00;;;;;;;;4730206;30;28732;-74
2023/09/03 17:37:24;;;;;;;;;2.00;1.00;;;;;;;;4724840;30;28484;-74
2023/09/03 17:39:49;;;;;;;;;1.75;1.75;;;;;;;;4719770;30;28666;-75
2023/09/03 17:42:14;;;;;;;;;1.00;1.00;;;;;;;;4729476;30;28540;-72
2023/09/03 17:44:39;;;;;;;;;2.00;1.75;;;;;;;;4729444;30;28494;-74
2023/09/03 17:47:05;;;;;;;;;1.00;1.00;;;;;;;;4728355;30;28728;-76
2023/09/03 17:49:30;;;;;;;;;2.00;2.00;;;;;;;;4729283;30;28588;-73
2023/09/03 17:51:55;;;;;;;;;1.50;1.00;;;;;;;;4728441;30;28562;-72
2023/09/03 17:54:20;;;;;;;;;2.00;2.00;;;;;;;;4729975;30;28505;-73
2023/09/03 17:56:46;;;;;;;;;1.00;1.00;;;;;;;;4728491;30;28480;-74
2023/09/03 17:59:11;;;;;;;;;3.00;3.00;;;;;;;;4711289;30;28413;-72
2023/09/03 18:01:36;;;;;;;;;2.00;2.00;;;;;;;;4711330;30;28528;-73
2023/09/03 18:04:01;;;;;;;;;2.00;2.00;;;;;;;;4712138;30;28538;-74
2023/09/03 18:06:27;;;;;;;;;2.25;2.25;;;;;;;;4712779;30;28550;-75
2023/09/03 18:08:52;;;;;;;;;2.75;2.75;;;;;;;;4712920;30;28627;-73
2023/09/03 18:11:18;;;;;;;;;2.00;2.00;;;;;;;;4712512;30;28616;-73
2023/09/03 18:13:44;;;;;;;;;3.00;3.00;;;;;;;;4710614;30;28539;-74
2023/09/03 18:16:12;;;;;;;;;2.75;2.75;;;;;;;;4709625;30;28493;-74
2023/09/03 18:18:37;;;;;;;;;2.00;2.00;;;;;;;;4723455;30;28590;-73
2023/09/03 18:21:03;;;;;;;;;5.00;1.25;;;;;;;;4726172;30;28612;-74
2023/09/03 18:23:28;;;;;;;;;3.75;2.75;;;;;;;;4730113;30;28483;-73
2023/09/03 18:25:53;;;;;;;;;3.00;3.00;;;;;;;;4728034;30;28544;-73
2023/09/03 18:28:18;;;;;;;;;3.00;3.00;;;;;;;;4729798;30;28576;-70
2023/09/03 18:30:44;;;;;;;;;3.00;3.00;;;;;;;;4730044;30;28500;-70
2023/09/03 18:33:09;;;;;;;;;3.00;3.00;;;;;;;;4738861;30;28529;-71
2023/09/03 18:35:34;;;;;;;;;2.00;2.00;;;;;;;;4730359;30;28571;-70
2023/09/03 18:38:00;;;;;;;;;3.25;3.25;;;;;;;;4730018;30;28497;-71
2023/09/03 18:40:26;;;;;;;;;6.50;3.00;;;;;;;;4730414;30;28489;-71
2023/09/03 18:42:52;;;;;;;;;2.75;2.75;;;;;;;;4730052;30;28616;-72
2023/09/03 18:45:18;;;;;;;;;5.25;5.25;;;;;;;;4730003;30;28373;-71
2023/09/03 18:47:43;;;;;;;;;3.25;2.50;;;;;;;;4730069;30;28438;-71
2023/09/03 18:50:08;;;;;;;;;6.00;4.25;;;;;;;;4730261;30;28451;-72
2023/09/03 18:52:33;;;;;;;;;4.00;4.00;;;;;;;;4730277;30;29164;-71
2023/09/03 18:54:58;;;;;;;;;4.50;3.75;;;;;;;;4730226;30;28306;-71
2023/09/03 18:57:24;;;;;;;;;3.25;3.25;;;;;;;;4729735;30;28399;-72
2023/09/03 18:59:49;;;;;;;;;4.00;4.00;;;;;;;;4729976;30;28366;-72
2023/09/03 19:02:16;;;;;;;;;5.00;5.00;;;;;;;;4714832;30;29804;-71
2023/09/03 19:04:41;;;;;;;;;3.75;3.75;;;;;;;;4730997;30;28477;-72
2023/09/03 19:07:07;;;;;;;;;3.50;3.50;;;;;;;;4732915;30;28461;-73
2023/09/03 19:09:33;;;;;;;;;3.00;3.00;;;;;;;;4737186;30;28659;-71